Terminal Aerodrome Forecast
Issued by NWS Topeka, KS

Home | Current Version | Previous Version | Text Only | Print | Product List | Glossary On
Versions: 1 2 3 4 5 6 7 8 9 10 11 12 13 14 15 16 17 18 19 20 21 22
000
FTUS43 KTOP 280326 AAA
TAFTOP
TAF AMD
KTOP 280326Z 2803/2824 16009KT P6SM SCT200
     FM280330 17009KT P6SM SCT200 WS020/19040KT
     FM280500 18010KT P6SM BKN015 WS020/19040KT
     FM281000 19011KT P6SM BKN050
     FM281700 22012G22KT P6SM BKN120=

USA.gov is the U.S. government's official web portal to all federal, state and local government web resources and services.